Time;durP1;ratioP1;P1;durP2;ratioP2;P2;SDS_P1;SDS_P2;PMS_P1;PMS_P2;Temp;Humidity;BMP_temperature;BMP_pressure;BME280_temperature;BME280_humidity;BME280_pressure;Samples;Min_cycle;Max_cycle;Signal;HPM_P1;HPM_P2
2022/07/26 00:02:03;;;;;;;6.88;5.88;;;;;;;;;;4970871;28;20733;-64
2022/07/26 00:04:29;;;;;;;7.78;5.70;;;;;;;;;;4973176;28;20640;-65
2022/07/26 00:06:55;;;;;;;6.15;5.63;;;;;;;;;;4967568;28;20122;-64
2022/07/26 00:09:20;;;;;;;6.30;5.30;;;;;;;;;;4970172;28;20082;-64
2022/07/26 00:11:46;;;;;;;6.28;5.05;;;;;;;;;;4971484;28;20510;-64
2022/07/26 00:14:12;;;;;;;7.82;5.22;;;;;;;;;;4970445;28;20510;-64
2022/07/26 00:16:38;;;;;;;8.85;5.47;;;;;;;;;;4968707;28;20085;-63
2022/07/26 00:19:06;;;;;;;5.95;5.45;;;;;;;;;;4970293;28;20169;-65
2022/07/26 00:21:33;;;;;;;6.93;5.60;;;;;;;;;;4970553;28;20390;-65
2022/07/26 00:23:59;;;;;;;5.95;4.95;;;;;;;;;;4971590;28;20122;-64
2022/07/26 00:26:25;;;;;;;6.55;5.30;;;;;;;;;;4970231;28;20582;-66
2022/07/26 00:28:51;;;;;;;6.70;5.25;;;;;;;;;;4976626;28;20035;-67
2022/07/26 00:31:17;;;;;;;6.50;5.43;;;;;;;;;;4974621;28;20222;-66
2022/07/26 00:33:42;;;;;;;6.55;5.10;;;;;;;;;;4972417;28;20070;-67
2022/07/26 00:36:08;;;;;;;5.72;5.32;;;;;;;;;;4968135;28;20070;-66
2022/07/26 00:38:34;;;;;;;7.78;5.43;;;;;;;;;;4971605;28;20035;-66
2022/07/26 00:41:00;;;;;;;5.72;5.32;;;;;;;;;;4970053;28;20441;-66
2022/07/26 00:43:25;;;;;;;5.68;5.10;;;;;;;;;;4973373;28;20041;-67
2022/07/26 00:45:51;;;;;;;5.60;5.20;;;;;;;;;;4967211;28;20487;-66
2022/07/26 00:48:17;;;;;;;5.32;4.93;;;;;;;;;;4972130;28;20707;-66
2022/07/26 00:50:43;;;;;;;5.43;5.05;;;;;;;;;;4966366;28;20144;-66
2022/07/26 00:53:09;;;;;;;5.40;4.90;;;;;;;;;;4965996;28;20046;-66
2022/07/26 00:55:34;;;;;;;5.57;4.90;;;;;;;;;;4974482;28;20035;-66
2022/07/26 00:58:01;;;;;;;6.03;5.10;;;;;;;;;;4975050;28;20512;-66
2022/07/26 01:00:27;;;;;;;7.10;5.10;;;;;;;;;;4967656;28;20043;-65
2022/07/26 01:02:54;;;;;;;6.22;5.00;;;;;;;;;;4971015;28;20042;-65
2022/07/26 01:05:21;;;;;;;7.85;5.30;;;;;;;;;;4976622;28;20054;-65
2022/07/26 01:07:48;;;;;;;5.50;5.10;;;;;;;;;;4973271;28;20030;-66
2022/07/26 01:10:14;;;;;;;5.68;5.15;;;;;;;;;;4965884;28;20157;-66
2022/07/26 01:12:43;;;;;;;5.60;5.07;;;;;;;;;;4972017;28;20129;-66
2022/07/26 01:15:10;;;;;;;;;;;;;;;;;;4971155;28;20092;-67
2022/07/26 01:17:36;;;;;;;5.47;4.97;;;;;;;;;;4967707;28;19913;-66
2022/07/26 01:20:03;;;;;;;7.07;5.00;;;;;;;;;;4969608;28;20046;-69
2022/07/26 01:22:29;;;;;;;5.40;4.90;;;;;;;;;;4968611;28;20027;-67
2022/07/26 01:24:55;;;;;;;7.97;5.25;;;;;;;;;;4967209;28;20034;-67
2022/07/26 01:27:20;;;;;;;7.55;5.63;;;;;;;;;;4974415;28;20039;-67
2022/07/26 01:29:46;;;;;;;6.95;5.55;;;;;;;;;;4972741;28;20042;-67
2022/07/26 01:32:13;;;;;;;5.47;5.00;;;;;;;;;;4973769;28;20066;-68
2022/07/26 01:34:39;;;;;;;5.07;4.78;;;;;;;;;;4968646;28;20121;-68
2022/07/26 01:37:04;;;;;;;5.82;5.28;;;;;;;;;;4969037;28;20149;-68
2022/07/26 01:39:30;;;;;;;5.80;5.40;;;;;;;;;;4969286;28;20022;-68
2022/07/26 01:41:56;;;;;;;5.70;5.30;;;;;;;;;;4966408;28;20545;-68
2022/07/26 01:44:22;;;;;;;5.50;5.00;;;;;;;;;;4968278;28;20038;-67
2022/07/26 01:46:48;;;;;;;6.07;5.57;;;;;;;;;;4971485;28;20042;-68
2022/07/26 01:49:13;;;;;;;6.40;5.57;;;;;;;;;;4969702;28;20487;-67
2022/07/26 01:51:39;;;;;;;5.88;5.47;;;;;;;;;;4965888;28;20145;-68
2022/07/26 01:54:05;;;;;;;5.80;5.30;;;;;;;;;;4967606;28;20116;-68
2022/07/26 01:56:31;;;;;;;5.90;5.43;;;;;;;;;;4963602;28;20062;-68
2022/07/26 01:58:56;;;;;;;5.97;5.40;;;;;;;;;;4969168;28;20050;-68
2022/07/26 02:01:22;;;;;;;5.70;5.13;;;;;;;;;;4968637;28;20032;-68
2022/07/26 02:03:48;;;;;;;5.80;5.40;;;;;;;;;;4968295;28;20415;-68
2022/07/26 02:06:13;;;;;;;5.68;5.18;;;;;;;;;;4967956;28;20078;-68
2022/07/26 02:08:39;;;;;;;6.15;5.57;;;;;;;;;;4972729;28;20041;-68
2022/07/26 02:11:05;;;;;;;5.50;5.00;;;;;;;;;;4970585;28;20047;-68
2022/07/26 02:13:35;;;;;;;5.70;5.30;;;;;;;;;;4970737;28;20035;-68
2022/07/26 02:16:03;;;;;;;5.72;5.28;;;;;;;;;;4965226;28;20042;-68
2022/07/26 02:18:29;;;;;;;5.35;5.00;;;;;;;;;;4971664;28;20510;-68
2022/07/26 02:20:56;;;;;;;5.88;5.47;;;;;;;;;;4973341;28;20045;-68
2022/07/26 02:23:22;;;;;;;5.60;5.10;;;;;;;;;;4966985;28;20042;-68
2022/07/26 02:25:48;;;;;;;5.57;5.18;;;;;;;;;;4964802;28;20035;-68
2022/07/26 02:28:14;;;;;;;5.70;5.15;;;;;;;;;;4964894;28;20049;-68
2022/07/26 02:30:41;;;;;;;5.75;5.25;;;;;;;;;;4967807;28;20541;-68
2022/07/26 02:33:07;;;;;;;6.93;5.43;;;;;;;;;;4964595;28;20566;-68
2022/07/26 02:35:33;;;;;;;5.68;5.28;;;;;;;;;;4958394;28;20125;-68
2022/07/26 02:38:06;;;;;;;5.28;4.97;;;;;;;;;;4961061;28;20101;-68
2022/07/26 02:40:32;;;;;;;5.80;5.35;;;;;;;;;;4967850;28;20062;-68
2022/07/26 02:42:58;;;;;;;6.38;5.53;;;;;;;;;;4970396;28;20042;-68
2022/07/26 02:45:24;;;;;;;6.22;5.63;;;;;;;;;;4970784;28;20037;-68
2022/07/26 02:47:52;;;;;;;6.22;5.72;;;;;;;;;;4971966;28;20043;-67
2022/07/26 02:50:19;;;;;;;6.35;5.85;;;;;;;;;;4974867;28;20031;-67
2022/07/26 02:52:46;;;;;;;6.32;5.82;;;;;;;;;;4972197;28;20034;-67
2022/07/26 02:55:14;;;;;;;6.35;5.70;;;;;;;;;;4966596;28;20039;-67
2022/07/26 02:57:39;;;;;;;5.82;5.28;;;;;;;;;;4967974;28;20070;-67
2022/07/26 03:00:06;;;;;;;5.80;5.38;;;;;;;;;;4972186;28;20073;-67
2022/07/26 03:02:32;;;;;;;6.25;5.57;;;;;;;;;;4970930;28;20049;-67
2022/07/26 03:04:57;;;;;;;6.70;5.85;;;;;;;;;;4969256;28;20042;-67
2022/07/26 03:07:23;;;;;;;6.28;5.70;;;;;;;;;;4971421;28;20030;-67
2022/07/26 03:09:49;;;;;;;6.22;5.60;;;;;;;;;;4971812;28;20073;-67
2022/07/26 03:12:14;;;;;;;11.35;5.82;;;;;;;;;;4970351;28;20066;-67
2022/07/26 03:14:40;;;;;;;6.32;5.70;;;;;;;;;;4971971;28;20069;-67
2022/07/26 03:17:05;;;;;;;6.13;5.63;;;;;;;;;;4970953;28;20117;-67
2022/07/26 03:19:31;;;;;;;6.47;5.82;;;;;;;;;;4971862;28;20065;-67
2022/07/26 03:21:56;;;;;;;6.07;5.68;;;;;;;;;;4969527;28;20046;-71
2022/07/26 03:24:22;;;;;;;7.47;5.60;;;;;;;;;;4971886;28;20474;-67
2022/07/26 03:26:48;;;;;;;5.95;5.43;;;;;;;;;;4971097;28;20039;-67
2022/07/26 03:29:13;;;;;;;6.15;5.53;;;;;;;;;;4972416;28;20057;-67
2022/07/26 03:31:39;;;;;;;6.28;5.82;;;;;;;;;;4969947;28;20101;-67
2022/07/26 03:34:04;;;;;;;6.13;5.70;;;;;;;;;;4972751;28;20058;-67
2022/07/26 03:36:30;;;;;;;6.13;5.55;;;;;;;;;;4971192;28;20031;-67
2022/07/26 03:38:56;;;;;;;6.05;5.55;;;;;;;;;;4969451;28;20046;-67
2022/07/26 03:41:21;;;;;;;6.53;6.03;;;;;;;;;;4963834;28;20026;-67
2022/07/26 03:43:47;;;;;;;6.47;5.90;;;;;;;;;;4969488;28;20042;-67
2022/07/26 03:46:12;;;;;;;6.30;5.70;;;;;;;;;;4970783;28;20038;-67
2022/07/26 03:48:38;;;;;;;6.15;5.38;;;;;;;;;;4970850;28;20023;-67
2022/07/26 03:51:04;;;;;;;6.85;5.65;;;;;;;;;;4968866;28;20031;-67
2022/07/26 03:53:29;;;;;;;5.80;5.30;;;;;;;;;;4971208;28;20027;-67
2022/07/26 03:58:39;;;;;;;6.32;5.93;;;;;;;;;;4969084;28;20038;-68
2022/07/26 04:01:05;;;;;;;5.82;5.32;;;;;;;;;;4965290;28;20043;-68
2022/07/26 04:03:30;;;;;;;6.43;5.82;;;;;;;;;;4968340;28;20034;-68
2022/07/26 04:05:56;;;;;;;5.90;5.40;;;;;;;;;;4967042;28;20069;-68
2022/07/26 04:08:22;;;;;;;5.85;5.35;;;;;;;;;;4970026;28;20037;-68
2022/07/26 04:10:51;;;;;;;5.95;5.55;;;;;;;;;;4969716;28;20043;-68
2022/07/26 04:13:22;;;;;;;5.88;5.38;;;;;;;;;;4963049;28;20856;-68
2022/07/26 04:15:48;;;;;;;5.93;5.43;;;;;;;;;;4965703;28;20093;-68
2022/07/26 04:18:14;;;;;;;5.63;5.10;;;;;;;;;;4970066;28;20070;-68
2022/07/26 04:20:41;;;;;;;6.07;5.47;;;;;;;;;;4969057;28;20058;-68
2022/07/26 04:23:06;;;;;;;6.20;5.60;;;;;;;;;;4966958;28;20034;-68
2022/07/26 04:25:33;;;;;;;10.25;5.65;;;;;;;;;;4970038;28;20039;-68
2022/07/26 04:27:59;;;;;;;5.90;5.50;;;;;;;;;;4969638;28;20109;-68
2022/07/26 04:30:25;;;;;;;6.43;5.93;;;;;;;;;;4971600;28;20038;-68
2022/07/26 04:32:51;;;;;;;7.15;5.70;;;;;;;;;;4969085;28;20035;-68
2022/07/26 04:35:16;;;;;;;6.40;5.82;;;;;;;;;;4963674;28;20965;-68
2022/07/26 04:37:44;;;;;;;6.35;5.75;;;;;;;;;;4959405;28;20030;-68
2022/07/26 04:40:14;;;;;;;7.53;6.25;;;;;;;;;;4971932;28;20455;-68
2022/07/26 04:42:39;;;;;;;6.88;6.18;;;;;;;;;;4964907;28;20487;-68
2022/07/26 04:45:06;;;;;;;6.93;6.30;;;;;;;;;;4967023;28;20089;-68
2022/07/26 04:47:31;;;;;;;6.80;6.13;;;;;;;;;;4966540;28;20022;-68
2022/07/26 04:49:57;;;;;;;6.32;5.80;;;;;;;;;;4971075;28;20081;-68
2022/07/26 04:52:22;;;;;;;6.63;6.13;;;;;;;;;;4969584;28;20978;-68
2022/07/26 04:54:48;;;;;;;7.03;6.15;;;;;;;;;;4970108;28;20049;-68
2022/07/26 04:57:14;;;;;;;8.05;6.20;;;;;;;;;;4953144;28;20517;-67
2022/07/26 04:59:39;;;;;;;6.55;5.95;;;;;;;;;;4962123;28;20698;-67
2022/07/26 05:02:05;;;;;;;6.70;6.10;;;;;;;;;;4964431;28;20080;-67
2022/07/26 05:04:30;;;;;;;6.70;6.20;;;;;;;;;;4959217;28;20533;-68
2022/07/26 05:07:01;;;;;;;6.68;6.18;;;;;;;;;;4968172;28;20045;-69
2022/07/26 05:09:29;;;;;;;6.47;6.03;;;;;;;;;;4966669;28;20129;-68
2022/07/26 05:11:55;;;;;;;7.18;6.07;;;;;;;;;;4966745;28;20035;-68
2022/07/26 05:14:20;;;;;;;6.35;5.75;;;;;;;;;;4961851;28;20539;-68
2022/07/26 05:16:47;;;;;;;6.40;5.90;;;;;;;;;;4966903;28;20080;-68
2022/07/26 05:19:13;;;;;;;7.00;6.10;;;;;;;;;;4965293;28;20125;-68
2022/07/26 05:21:39;;;;;;;6.65;6.15;;;;;;;;;;4965619;28;20031;-68
2022/07/26 05:24:05;;;;;;;6.88;6.38;;;;;;;;;;4962186;28;20050;-68
2022/07/26 05:26:30;;;;;;;7.30;6.35;;;;;;;;;;4965445;28;20269;-68
2022/07/26 05:28:57;;;;;;;6.65;6.15;;;;;;;;;;4965213;28;20563;-68
2022/07/26 05:31:23;;;;;;;6.35;5.85;;;;;;;;;;4965314;28;20121;-68
2022/07/26 05:33:49;;;;;;;8.05;6.03;;;;;;;;;;4962801;28;20105;-68
2022/07/26 05:36:15;;;;;;;6.93;6.32;;;;;;;;;;4963086;28;20547;-69
2022/07/26 05:38:41;;;;;;;6.50;6.10;;;;;;;;;;4967182;28;20035;-69
2022/07/26 05:41:06;;;;;;;6.22;5.82;;;;;;;;;;4964532;28;20229;-68
2022/07/26 05:43:32;;;;;;;7.55;5.90;;;;;;;;;;4961606;28;20065;-69
2022/07/26 05:45:58;;;;;;;7.40;6.00;;;;;;;;;;4963578;28;20518;-68
2022/07/26 05:48:23;;;;;;;6.50;6.05;;;;;;;;;;4964965;28;20085;-68
2022/07/26 05:50:49;;;;;;;6.40;5.82;;;;;;;;;;4965653;28;20075;-68
2022/07/26 05:53:15;;;;;;;7.68;6.28;;;;;;;;;;4961890;28;20027;-69
2022/07/26 05:55:40;;;;;;;6.32;5.72;;;;;;;;;;4969926;28;20112;-69
2022/07/26 05:58:06;;;;;;;6.47;5.90;;;;;;;;;;4964752;28;20038;-68
2022/07/26 06:00:32;;;;;;;6.35;5.75;;;;;;;;;;4967202;28;20568;-68
2022/07/26 06:02:58;;;;;;;6.57;5.80;;;;;;;;;;4962534;28;20557;-69
2022/07/26 06:05:23;;;;;;;6.72;6.13;;;;;;;;;;4966919;28;20344;-69
2022/07/26 06:07:49;;;;;;;6.57;6.07;;;;;;;;;;4965092;28;20514;-68
2022/07/26 06:10:15;;;;;;;6.35;5.70;;;;;;;;;;4964630;28;20031;-68
2022/07/26 06:12:40;;;;;;;6.82;6.05;;;;;;;;;;4964234;28;20118;-68
2022/07/26 06:15:06;;;;;;;9.43;5.90;;;;;;;;;;4964704;28;20035;-68
2022/07/26 06:17:32;;;;;;;6.82;6.20;;;;;;;;;;4967452;28;20057;-68
2022/07/26 06:19:58;;;;;;;6.43;5.93;;;;;;;;;;4962032;28;20449;-69
2022/07/26 06:22:24;;;;;;;6.15;5.75;;;;;;;;;;4968944;28;20031;-68
2022/07/26 06:24:49;;;;;;;6.50;5.88;;;;;;;;;;4965756;28;20050;-68
2022/07/26 06:27:15;;;;;;;5.60;5.20;;;;;;;;;;4970439;28;20541;-69
2022/07/26 06:29:41;;;;;;;6.50;5.97;;;;;;;;;;4963576;28;20043;-68
2022/07/26 06:32:06;;;;;;;7.47;5.90;;;;;;;;;;4963840;28;20070;-68
2022/07/26 06:34:32;;;;;;;6.93;6.20;;;;;;;;;;4964259;28;20035;-68
2022/07/26 06:36:58;;;;;;;7.00;6.40;;;;;;;;;;4961782;28;20889;-69
2022/07/26 06:39:23;;;;;;;6.68;6.07;;;;;;;;;;4967199;28;20526;-69
2022/07/26 06:41:49;;;;;;;5.88;5.47;;;;;;;;;;4966354;28;20053;-68
2022/07/26 06:44:21;;;;;;;8.07;5.75;;;;;;;;;;4960143;28;20034;-68
2022/07/26 06:46:47;;;;;;;6.70;6.07;;;;;;;;;;4964464;28;20161;-68
2022/07/26 06:49:12;;;;;;;5.55;5.15;;;;;;;;;;4962733;28;20043;-68
2022/07/26 06:51:38;;;;;;;6.18;5.70;;;;;;;;;;4962968;28;20476;-68
2022/07/26 06:54:04;;;;;;;6.20;5.60;;;;;;;;;;4963208;28;20446;-68
2022/07/26 06:56:31;;;;;;;6.63;6.00;;;;;;;;;;4962679;28;20491;-70
2022/07/26 06:58:56;;;;;;;7.57;6.10;;;;;;;;;;4964830;28;20039;-69
2022/07/26 07:01:22;;;;;;;6.65;6.15;;;;;;;;;;4962941;28;20038;-69
2022/07/26 07:03:48;;;;;;;9.45;6.50;;;;;;;;;;4963394;28;20043;-69
2022/07/26 07:06:13;;;;;;;10.25;6.10;;;;;;;;;;4963867;28;20074;-69
2022/07/26 07:08:39;;;;;;;5.90;5.50;;;;;;;;;;4960926;28;20177;-69
2022/07/26 07:11:05;;;;;;;6.22;5.50;;;;;;;;;;4963613;28;20050;-69
2022/07/26 07:13:30;;;;;;;7.45;5.80;;;;;;;;;;4962089;28;20054;-69
2022/07/26 07:15:56;;;;;;;6.22;5.72;;;;;;;;;;4965900;28;20589;-69
2022/07/26 07:18:22;;;;;;;7.30;5.68;;;;;;;;;;4959878;28;20023;-69
2022/07/26 07:20:47;;;;;;;7.68;5.40;;;;;;;;;;4966425;28;20042;-69
2022/07/26 07:23:13;;;;;;;5.97;5.35;;;;;;;;;;4967769;28;20600;-69
2022/07/26 07:25:39;;;;;;;5.57;5.00;;;;;;;;;;4962556;28;20027;-69
2022/07/26 07:28:04;;;;;;;6.07;5.30;;;;;;;;;;4963133;28;20533;-69
2022/07/26 07:30:30;;;;;;;6.88;5.68;;;;;;;;;;4966983;28;20027;-70
2022/07/26 07:32:55;;;;;;;8.52;5.40;;;;;;;;;;4967037;28;20039;-69
2022/07/26 07:35:21;;;;;;;5.68;5.18;;;;;;;;;;4962573;28;20468;-69
2022/07/26 07:37:46;;;;;;;5.93;5.40;;;;;;;;;;4966960;28;20031;-69
2022/07/26 07:40:13;;;;;;;5.80;5.30;;;;;;;;;;4970375;28;20046;-69
2022/07/26 07:42:38;;;;;;;6.30;5.55;;;;;;;;;;4963953;28;20125;-69
2022/07/26 07:45:04;;;;;;;5.93;5.30;;;;;;;;;;4963100;28;20042;-69
2022/07/26 07:47:33;;;;;;;5.50;4.90;;;;;;;;;;4967210;28;20035;-69
2022/07/26 07:49:59;;;;;;;8.55;5.43;;;;;;;;;;4964577;28;20108;-69
2022/07/26 07:52:24;;;;;;;6.07;5.40;;;;;;;;;;4966554;28;20042;-69
2022/07/26 07:54:50;;;;;;;6.63;5.60;;;;;;;;;;4965778;28;20066;-69
2022/07/26 07:57:16;;;;;;;6.00;5.15;;;;;;;;;;4967139;28;20039;-69
2022/07/26 07:59:41;;;;;;;5.70;5.20;;;;;;;;;;4965099;28;20330;-69
2022/07/26 08:02:08;;;;;;;8.60;5.30;;;;;;;;;;4965568;28;20186;-69
2022/07/26 08:04:34;;;;;;;5.35;4.70;;;;;;;;;;4965764;28;20246;-69
2022/07/26 08:06:59;;;;;;;7.05;5.00;;;;;;;;;;4966775;28;20042;-69
2022/07/26 08:09:25;;;;;;;5.43;4.80;;;;;;;;;;4963545;28;20409;-69
2022/07/26 08:11:50;;;;;;;5.05;4.60;;;;;;;;;;4964174;28;20047;-70
2022/07/26 08:14:17;;;;;;;7.07;4.90;;;;;;;;;;4966377;28;20049;-70
2022/07/26 08:16:43;;;;;;;5.10;4.70;;;;;;;;;;4965441;28;20053;-69
2022/07/26 08:19:09;;;;;;;6.20;4.93;;;;;;;;;;4966222;28;20039;-69
2022/07/26 08:21:35;;;;;;;6.40;4.68;;;;;;;;;;4967743;28;20310;-69
2022/07/26 08:24:00;;;;;;;6.30;4.70;;;;;;;;;;4965264;28;20070;-70
2022/07/26 08:26:26;;;;;;;6.88;4.85;;;;;;;;;;4967683;28;20037;-69
2022/07/26 08:28:51;;;;;;;5.20;4.80;;;;;;;;;;4968742;28;20058;-70
2022/07/26 08:31:19;;;;;;;5.70;4.72;;;;;;;;;;4967742;28;20089;-69
2022/07/26 08:33:46;;;;;;;5.90;4.50;;;;;;;;;;4962694;28;20078;-69
2022/07/26 08:36:12;;;;;;;7.53;4.25;;;;;;;;;;4963202;28;20046;-69
2022/07/26 08:38:38;;;;;;;4.70;4.20;;;;;;;;;;4962623;28;20038;-69
2022/07/26 08:41:03;;;;;;;5.90;4.25;;;;;;;;;;4966903;28;20043;-69
2022/07/26 08:43:29;;;;;;;6.10;4.47;;;;;;;;;;4965241;28;20041;-69
2022/07/26 08:46:01;;;;;;;4.60;4.00;;;;;;;;;;4963928;28;20045;-69
2022/07/26 08:48:27;;;;;;;4.57;4.20;;;;;;;;;;4964074;28;20033;-69
2022/07/26 08:50:54;;;;;;;5.60;4.28;;;;;;;;;;4968397;28;20038;-69
2022/07/26 08:53:21;;;;;;;4.57;4.18;;;;;;;;;;4964110;28;20046;-69
2022/07/26 08:55:46;;;;;;;5.68;4.10;;;;;;;;;;4964417;28;20118;-69
2022/07/26 08:58:12;;;;;;;7.30;4.50;;;;;;;;;;4965722;28;20118;-69
2022/07/26 09:00:40;;;;;;;5.20;4.60;;;;;;;;;;4960904;28;20035;-69
2022/07/26 09:03:05;;;;;;;4.90;4.50;;;;;;;;;;4960617;28;20118;-69
2022/07/26 09:05:33;;;;;;;6.57;4.93;;;;;;;;;;4964685;28;20126;-69
2022/07/26 09:08:00;;;;;;;6.90;5.20;;;;;;;;;;4963072;28;20034;-69
2022/07/26 09:10:26;;;;;;;5.20;4.80;;;;;;;;;;4966604;28;20031;-69
2022/07/26 09:12:56;;;;;;;6.35;4.72;;;;;;;;;;4962098;28;20038;-69
2022/07/26 09:15:25;;;;;;;5.00;4.57;;;;;;;;;;4966845;28;20041;-69
2022/07/26 09:17:55;;;;;;;6.85;4.47;;;;;;;;;;4965143;28;20074;-69
2022/07/26 09:20:22;;;;;;;5.10;4.60;;;;;;;;;;4961941;28;20122;-69
2022/07/26 09:23:01;;;;;;;4.90;4.50;;;;;;;;;;4965543;28;20350;-69
2022/07/26 09:25:31;;;;;;;4.53;4.25;;;;;;;;;;4966677;28;20039;-69
2022/07/26 09:27:58;;;;;;;5.20;4.90;;;;;;;;;;4965015;28;20548;-69
2022/07/26 09:30:25;;;;;;;5.65;5.20;;;;;;;;;;4967397;28;20031;-69
2022/07/26 09:33:00;;;;;;;6.78;4.90;;;;;;;;;;4970356;28;20290;-69
2022/07/26 09:35:26;;;;;;;9.50;4.70;;;;;;;;;;4964710;28;20035;-69
2022/07/26 09:37:51;;;;;;;7.03;4.88;;;;;;;;;;4962934;28;20121;-69
2022/07/26 09:40:18;;;;;;;4.40;4.00;;;;;;;;;;4965042;28;20034;-68
2022/07/26 09:42:58;;;;;;;4.38;4.07;;;;;;;;;;4963836;28;20117;-69
2022/07/26 09:45:25;;;;;;;4.93;4.43;;;;;;;;;;4960680;28;20037;-69
2022/07/26 09:47:51;;;;;;;5.03;4.68;;;;;;;;;;4966454;28;20035;-69
2022/07/26 09:50:22;;;;;;;5.28;4.88;;;;;;;;;;4971292;28;20062;-69
2022/07/26 09:53:11;;;;;;;8.02;4.68;;;;;;;;;;4959234;28;20069;-69
2022/07/26 09:55:45;;;;;;;;;;;;;;;;;;4965262;28;20116;-69
2022/07/26 09:58:12;;;;;;;;;;;;;;;;;;4964255;28;20369;-68
2022/07/26 10:00:38;;;;;;;;;;;;;;;;;;4959309;28;19969;-70
2022/07/26 10:03:04;;;;;;;;;;;;;;;;;;4962487;28;19918;-69
2022/07/26 10:05:31;;;;;;;;;;;;;;;;;;4966220;28;19918;-69
2022/07/26 10:07:58;;;;;;;;;;;;;;;;;;4964388;28;20437;-69
2022/07/26 10:10:28;;;;;;;;;;;;;;;;;;4963692;28;19918;-69
2022/07/26 10:12:55;;;;;;;;;;;;;;;;;;4961034;28;20024;-70
2022/07/26 10:15:34;;;;;;;;;;;;;;;;;;4964316;28;20152;-68
2022/07/26 10:17:59;;;;;;;;;;;;;;;;;;4959115;28;19965;-69
2022/07/26 10:20:42;;;;;;;;;;;;;;;;;;4965084;28;20008;-69
2022/07/26 10:23:26;;;;;;;;;;;;;;;;;;4963202;28;19917;-68
2022/07/26 10:25:51;;;;;;;;;;;;;;;;;;4966673;28;20283;-69
2022/07/26 10:28:25;;;;;;;;;;;;;;;;;;4961971;28;20440;-69
2022/07/26 10:30:51;;;;;;;;;;;;;;;;;;4969602;28;20379;-69
2022/07/26 10:33:17;;;;;;;;;;;;;;;;;;4962995;28;20393;-69
2022/07/26 10:35:43;;;;;;;;;;;;;;;;;;4966069;28;20457;-69
2022/07/26 10:38:13;;;;;;;;;;;;;;;;;;4961628;28;20001;-69
2022/07/26 10:40:53;;;;;;;;;;;;;;;;;;4964752;28;19953;-69
2022/07/26 10:43:19;;;;;;;;;;;;;;;;;;4963033;28;19914;-69
2022/07/26 10:45:44;;;;;;;;;;;;;;;;;;4962615;28;20008;-69
2022/07/26 10:48:17;;;;;;;;;;;;;;;;;;4963971;28;20004;-69
2022/07/26 10:50:50;;;;;;;;;;;;;;;;;;4962879;28;19922;-68
2022/07/26 10:53:17;;;;;;;;;;;;;;;;;;4963040;28;19917;-69
2022/07/26 10:55:55;;;;;;;;;;;;;;;;;;4963984;28;20239;-69
2022/07/26 10:58:21;;;;;;;;;;;;;;;;;;4962157;28;20374;-69
2022/07/26 11:01:13;;;;;;;;;;;;;;;;;;4962795;28;19961;-69
2022/07/26 11:03:40;;;;;;;;;;;;;;;;;;4957543;28;19929;-69
2022/07/26 11:06:15;;;;;;;;;;;;;;;;;;4967481;28;19961;-69
2022/07/26 11:08:42;;;;;;;;;;;;;;;;;;4967495;28;20294;-69
2022/07/26 11:11:07;;;;;;;;;;;;;;;;;;4968082;28;19964;-69
2022/07/26 11:13:35;;;;;;;;;;;;;;;;;;4964243;28;20326;-69
2022/07/26 11:16:01;;;;;;;;;;;;;;;;;;4968497;28;20152;-69
2022/07/26 11:18:33;;;;;;;;;;;;;;;;;;4967526;28;20009;-69
2022/07/26 11:21:12;;;;;;;;;;;;;;;;;;4965312;28;19945;-69
2022/07/26 11:23:39;;;;;;;;;;;;;;;;;;4964529;28;20434;-69
2022/07/26 11:26:06;;;;;;;;;;;;;;;;;;4968838;28;19925;-69
2022/07/26 11:28:45;;;;;;;;;;;;;;;;;;4967400;28;20556;-69
2022/07/26 11:31:11;;;;;;;;;;;;;;;;;;4966406;28;19944;-69
2022/07/26 11:33:37;;;;;;;;;;;;;;;;;;4965537;28;20366;-67
2022/07/26 11:36:03;;;;;;;;;;;;;;;;;;4969459;28;20032;-69
2022/07/26 11:38:49;;;;;;;;;;;;;;;;;;4968041;28;19918;-70
2022/07/26 11:41:18;;;;;;;;;;;;;;;;;;4966750;28;19922;-69
2022/07/26 11:43:44;;;;;;;;;;;;;;;;;;4965467;28;19918;-68
2022/07/26 11:46:09;;;;;;;;;;;;;;;;;;4966633;28;20324;-69
2022/07/26 11:48:35;;;;;;;;;;;;;;;;;;4967321;28;20398;-69
2022/07/26 11:51:08;;;;;;;;;;;;;;;;;;4967986;28;20429;-69
2022/07/26 11:53:34;;;;;;;;;;;;;;;;;;4963097;28;19947;-68
2022/07/26 11:56:10;;;;;;;;;;;;;;;;;;4967149;28;19964;-69
2022/07/26 11:58:37;;;;;;;;;;;;;;;;;;4967108;28;19921;-68
2022/07/26 12:01:03;;;;;;;;;;;;;;;;;;4965541;28;20429;-70
2022/07/26 12:03:29;;;;;;;;;;;;;;;;;;4966424;28;20218;-68
2022/07/26 12:06:04;;;;;;;;;;;;;;;;;;4968192;28;19979;-69
2022/07/26 12:08:42;;;;;;;;;;;;;;;;;;4967417;28;19953;-68
2022/07/26 12:11:08;;;;;;;;;;;;;;;;;;4966935;28;19937;-69
2022/07/26 12:13:46;;;;;;;;;;;;;;;;;;4965837;28;19914;-68
2022/07/26 12:16:12;;;;;;;;;;;;;;;;;;4967487;28;19982;-68
2022/07/26 12:18:38;;;;;;;;;;;;;;;;;;4962967;28;20381;-68
2022/07/26 12:21:05;;;;;;;;;;;;;;;;;;4965819;28;19953;-68
2022/07/26 12:23:44;;;;;;;;;;;;;;;;;;4966416;28;20295;-68
2022/07/26 12:26:23;;;;;;;;;;;;;;;;;;4965534;28;19918;-68
2022/07/26 12:28:48;;;;;;;;;;;;;;;;;;4964906;28;19925;-68
2022/07/26 12:31:20;;;;;;;;;;;;;;;;;;4965745;28;20162;-68
2022/07/26 12:33:46;;;;;;;;;;;;;;;;;;4965229;28;19918;-68
2022/07/26 12:36:16;;;;;;;;;;;;;;;;;;4968874;28;19922;-69
2022/07/26 12:38:42;;;;;;;;;;;;;;;;;;4965519;28;20001;-69
2022/07/26 12:41:09;;;;;;;;;;;;;;;;;;4971032;28;19969;-69
2022/07/26 12:43:40;;;;;;;;;;;;;;;;;;4968741;28;19914;-69
2022/07/26 12:46:06;;;;;;;;;;;;;;;;;;4967499;28;19914;-69
2022/07/26 12:48:31;;;;;;;;;;;;;;;;;;4964768;28;19921;-69
2022/07/26 12:50:57;;;;;;;;;;;;;;;;;;4966138;28;19922;-68
2022/07/26 12:53:22;;;;;;;;;;;;;;;;;;4967642;28;19960;-69
2022/07/26 12:55:48;;;;;;;;;;;;;;;;;;4963639;28;19917;-69
2022/07/26 12:58:13;;;;;;;;;;;;;;;;;;4965983;28;19922;-69
2022/07/26 13:00:39;;;;;;;;;;;;;;;;;;4968357;28;20330;-68
2022/07/26 13:03:04;;;;;;;;;;;;;;;;;;4965467;28;19914;-68
2022/07/26 13:05:30;;;;;;;;;;;;;;;;;;4961479;28;19922;-68
2022/07/26 13:07:56;;;;;;;;;;;;;;;;;;4959778;28;20275;-68
2022/07/26 13:10:22;;;;;;;;;;;;;;;;;;4962308;28;20297;-68
2022/07/26 13:12:48;;;;;;;;;;;;;;;;;;4963598;28;19950;-69
2022/07/26 13:15:13;;;;;;;;;;;;;;;;;;4962548;28;19961;-69
2022/07/26 13:17:38;;;;;;;;;;;;;;;;;;4966912;28;19928;-69
2022/07/26 13:20:04;;;;;;;;;;;;;;;;;;4960924;28;19920;-69
2022/07/26 13:22:30;;;;;;;;;;;;;;;;;;4962034;28;20350;-69
2022/07/26 13:24:55;;;;;;;;;;;;;;;;;;4962088;28;19953;-69
2022/07/26 13:27:21;;;;;;;;;;;;;;;;;;4960464;28;19984;-69
2022/07/26 13:29:46;;;;;;;;;;;;;;;;;;4963147;28;19918;-69
2022/07/26 13:32:12;;;;;;;;;;;;;;;;;;4962829;28;20001;-68
2022/07/26 13:34:37;;;;;;;;;;;;;;;;;;4963099;28;20306;-69
2022/07/26 13:37:03;;;;;;;;;;;;;;;;;;4976156;28;19968;-68
2022/07/26 13:39:28;;;;;;;;;;;;;;;;;;4965172;28;19921;-69
2022/07/26 13:41:54;;;;;;;;;;;;;;;;;;4963304;28;19993;-70
2022/07/26 13:44:20;;;;;;;;;;;;;;;;;;4959842;28;19913;-69
2022/07/26 13:46:46;;;;;;;;;;;;;;;;;;4964394;28;20536;-69
2022/07/26 13:49:11;;;;;;;;;;;;;;;;;;4963328;28;20009;-69
2022/07/26 13:51:55;;;;;;;;;;;;;;;;;;4962258;28;19922;-69
2022/07/26 13:54:22;;;;;;;;;;;;;;;;;;4957444;28;19973;-69
2022/07/26 13:56:48;;;;;;;;;;;;;;;;;;4962797;28;19952;-69
2022/07/26 13:59:14;;;;;;;;;;;;;;;;;;4961788;28;19957;-69
2022/07/26 14:01:40;;;;;;;;;;;;;;;;;;4956113;28;19917;-69
2022/07/26 14:04:06;;;;;;;;;;;;;;;;;;4957942;28;20428;-68
2022/07/26 14:06:32;;;;;;;;;;;;;;;;;;4958494;28;19918;-68
2022/07/26 14:08:58;;;;;;;;;;;;;;;;;;4962353;28;19928;-69
2022/07/26 14:11:23;;;;;;;;;;;;;;;;;;4959136;28;19968;-69
2022/07/26 14:13:49;;;;;;;;;;;;;;;;;;4960920;28;19917;-69
2022/07/26 14:16:14;;;;;;;;;;;;;;;;;;4961795;28;20422;-69
2022/07/26 14:18:40;;;;;;;;;;;;;;;;;;4960456;28;19928;-69
2022/07/26 14:21:05;;;;;;;;;;;;;;;;;;4963848;28;19918;-69
2022/07/26 14:23:31;;;;;;;;;;;;;;;;;;4961708;28;19946;-69
2022/07/26 14:25:56;;;;;;;;;;;;;;;;;;4961834;28;19917;-69
2022/07/26 14:28:22;;;;;;;;;;;;;;;;;;4960943;28;19957;-69
2022/07/26 14:30:47;;;;;;;;;;;;;;;;;;4959274;28;20350;-69
2022/07/26 14:33:13;;;;;;;;;;;;;;;;;;4959705;28;20595;-68
2022/07/26 14:35:40;;;;;;;;;;;;;;;;;;4957748;28;19941;-69
2022/07/26 14:38:06;;;;;;;;;;;;;;;;;;4961550;28;19920;-69
2022/07/26 14:40:32;;;;;;;;;;;;;;;;;;4966849;28;19913;-68
2022/07/26 14:42:57;;;;;;;;;;;;;;;;;;4968422;28;20433;-69
2022/07/26 14:45:23;;;;;;;;;;;;;;;;;;4964441;28;19922;-69
2022/07/26 14:47:49;;;;;;;;;;;;;;;;;;4966547;28;19918;-69
2022/07/26 14:50:15;;;;;;;;;;;;;;;;;;4961163;28;19918;-69
2022/07/26 14:52:42;;;;;;;;;;;;;;;;;;4965533;28;19917;-68
2022/07/26 14:55:08;;;;;;;;;;;;;;;;;;4964999;28;19929;-69
2022/07/26 14:57:34;;;;;;;;;;;;;;;;;;4970309;28;19918;-68
2022/07/26 14:59:59;;;;;;;;;;;;;;;;;;4962635;28;19925;-69
2022/07/26 15:02:25;;;;;;;;;;;;;;;;;;4969772;28;20495;-68
2022/07/26 15:04:50;;;;;;;;;;;;;;;;;;4962138;28;19915;-68
2022/07/26 15:07:16;;;;;;;;;;;;;;;;;;4967947;28;20016;-67
2022/07/26 15:09:41;;;;;;;;;;;;;;;;;;4966232;28;20310;-67
2022/07/26 15:12:07;;;;;;;;;;;;;;;;;;4967606;28;20024;-69
2022/07/26 15:14:34;;;;;;;;;;;;;;;;;;4967097;28;20364;-67
2022/07/26 15:16:59;;;;;;;;;;;;;;;;;;4968095;28;20409;-68
2022/07/26 15:19:25;;;;;;;;;;;;;;;;;;4966567;28;20009;-68
2022/07/26 15:21:51;;;;;;;;;;;;;;;;;;4968141;28;19921;-68
2022/07/26 15:24:17;;;;;;;;;;;;;;;;;;4968896;28;19937;-68